Time;durP1;ratioP1;P1;durP2;ratioP2;P2;SDS_P1;SDS_P2;PMS_P1;PMS_P2;Temp;Humidity;BMP_temperature;BMP_pressure;BME280_temperature;BME280_humidity;BME280_pressure;Samples;Min_cycle;Max_cycle;Signal;HPM_P1;HPM_P2
2024/01/12 00:00:49;;;;;;;5.50;2.27;;;;;;;;;;5056906;28;20464;-67
2024/01/12 00:03:16;;;;;;;6.17;2.57;;;;;;;;;;5074518;28;20474;-67
2024/01/12 00:05:45;;;;;;;5.30;2.33;;;;;;;;;;5074409;28;20456;-67
2024/01/12 00:08:12;;;;;;;8.40;2.30;;;;;;;;;;5040901;28;20436;-67
2024/01/12 00:10:38;;;;;;;6.50;2.10;;;;;;;;;;5057056;28;20737;-67
2024/01/12 00:13:08;;;;;;;7.37;2.93;;;;;;;;;;5057248;28;20452;-67
2024/01/12 00:15:35;;;;;;;4.40;1.97;;;;;;;;;;5040535;28;20523;-67
2024/01/12 00:18:19;;;;;;;6.13;1.67;;;;;;;;;;5074249;28;20879;-67
2024/01/12 00:20:46;;;;;;;5.17;1.80;;;;;;;;;;5056662;28;20438;-67
2024/01/12 00:23:13;;;;;;;4.73;1.90;;;;;;;;;;5074121;28;20436;-67
2024/01/12 00:25:39;;;;;;;3.57;1.60;;;;;;;;;;5056619;28;20502;-67
2024/01/12 00:28:06;;;;;;;6.80;2.27;;;;;;;;;;5074372;28;20524;-67
2024/01/12 00:30:50;;;;;;;6.23;1.83;;;;;;;;;;5074042;28;20431;-67
2024/01/12 00:33:16;;;;;;;5.30;2.00;;;;;;;;;;5074290;28;20408;-67
2024/01/12 00:35:43;;;;;;;5.40;1.80;;;;;;;;;;5073977;28;20467;-67
2024/01/12 00:38:10;;;;;;;3.23;1.70;;;;;;;;;;5074214;28;20444;-67
2024/01/12 00:40:37;;;;;;;4.73;1.67;;;;;;;;;;5056499;28;20436;-67
2024/01/12 00:43:21;;;;;;;3.27;1.63;;;;;;;;;;5074116;28;20866;-67
2024/01/12 00:45:47;;;;;;;5.53;1.80;;;;;;;;;;5073785;28;20463;-67
2024/01/12 00:48:14;;;;;;;6.50;2.20;;;;;;;;;;5057002;28;20432;-67
2024/01/12 00:50:43;;;;;;;5.07;2.10;;;;;;;;;;5055923;28;20523;-67
2024/01/12 00:53:10;;;;;;;4.97;1.60;;;;;;;;;;5056097;28;20498;-67
2024/01/12 00:55:36;;;;;;;3.13;1.30;;;;;;;;;;5056276;28;20436;-67
2024/01/12 00:58:03;;;;;;;2.80;1.23;;;;;;;;;;5073698;28;20420;-67
2024/01/12 01:00:31;;;;;;;5.07;1.40;;;;;;;;;;5075243;28;20455;-67
2024/01/12 01:03:15;;;;;;;3.73;1.60;;;;;;;;;;5073624;28;20464;-67
2024/01/12 01:05:42;;;;;;;4.73;1.23;;;;;;;;;;5055798;28;20444;-67
2024/01/12 01:08:26;;;;;;;3.63;1.50;;;;;;;;;;5059173;28;20393;-67
2024/01/12 01:10:53;;;;;;;4.27;1.40;;;;;;;;;;5074096;28;20412;-67
2024/01/12 01:48:29;;;;;;;5.10;2.47;;;;;;;;;;5073198;28;20435;-66
2024/01/12 01:50:57;;;;;;;5.37;1.80;;;;;;;;;;5055765;28;20440;-67
2024/01/12 01:53:23;;;;;;;5.77;2.03;;;;;;;;;;5073073;28;20431;-67
2024/01/12 01:55:50;;;;;;;4.90;1.83;;;;;;;;;;5055709;28;20435;-67
2024/01/12 01:58:34;;;;;;;5.83;2.13;;;;;;;;;;5055448;28;20454;-68
2024/01/12 02:01:01;;;;;;;2.93;1.80;;;;;;;;;;5055600;28;20735;-67
2024/01/12 02:03:28;;;;;;;5.23;2.20;;;;;;;;;;5077955;28;20452;-67
2024/01/12 02:05:56;;;;;;;3.80;1.67;;;;;;;;;;5076766;28;20480;-66
2024/01/12 02:08:24;;;;;;;6.30;2.10;;;;;;;;;;5043645;28;20930;-67
2024/01/12 02:10:52;;;;;;;7.50;2.23;;;;;;;;;;5059569;28;20420;-67
2024/01/12 02:13:19;;;;;;;3.13;1.30;;;;;;;;;;5026404;28;20511;-67
2024/01/12 02:15:45;;;;;;;4.43;1.90;;;;;;;;;;5076909;28;20416;-67
2024/01/12 02:18:12;;;;;;;3.60;1.97;;;;;;;;;;5059480;28;20443;-67
2024/01/12 02:20:39;;;;;;;8.47;2.30;;;;;;;;;;5042402;28;20783;-67
2024/01/12 02:23:06;;;;;;;6.03;2.37;;;;;;;;;;5077077;28;20485;-67
2024/01/12 02:25:33;;;;;;;5.67;1.80;;;;;;;;;;5058739;28;20490;-67
2024/01/12 02:27:59;;;;;;;3.17;1.50;;;;;;;;;;5042162;28;20556;-67
2024/01/12 02:30:26;;;;;;;4.57;1.40;;;;;;;;;;5076632;28;20424;-67
2024/01/12 02:32:53;;;;;;;3.43;1.47;;;;;;;;;;5076401;28;20428;-67
2024/01/12 02:35:20;;;;;;;5.73;1.57;;;;;;;;;;5059386;28;20422;-67
2024/01/12 02:37:46;;;;;;;3.77;1.60;;;;;;;;;;5059312;28;20428;-67
2024/01/12 02:40:13;;;;;;;3.93;1.73;;;;;;;;;;5076216;28;20419;-67
2024/01/12 02:42:39;;;;;;;4.83;1.70;;;;;;;;;;5076156;28;20828;-67
2024/01/12 02:45:06;;;;;;;5.30;1.90;;;;;;;;;;5076369;28;20470;-67
2024/01/12 02:47:33;;;;;;;9.30;2.70;;;;;;;;;;5058306;28;20456;-67
2024/01/12 02:49:59;;;;;;;7.73;2.80;;;;;;;;;;5059075;28;20498;-67
2024/01/12 02:52:26;;;;;;;7.93;2.53;;;;;;;;;;5076819;28;20741;-67
2024/01/12 02:54:53;;;;;;;9.43;2.63;;;;;;;;;;5042065;28;20424;-67
2024/01/12 02:57:19;;;;;;;6.83;2.70;;;;;;;;;;5059220;28;20489;-67
2024/01/12 02:59:46;;;;;;;5.93;2.20;;;;;;;;;;5075937;28;20780;-67
2024/01/12 03:02:13;;;;;;;5.83;2.23;;;;;;;;;;5058360;28;20511;-67
2024/01/12 03:04:40;;;;;;;8.67;3.13;;;;;;;;;;5041558;28;20491;-67
2024/01/12 03:07:06;;;;;;;7.40;3.23;;;;;;;;;;5075616;28;20467;-66
2024/01/12 03:09:33;;;;;;;9.10;3.20;;;;;;;;;;5075663;28;20459;-67
2024/01/12 03:12:00;;;;;;;9.87;3.17;;;;;;;;;;5076506;28;20735;-67
2024/01/12 03:14:27;;;;;;;7.73;2.90;;;;;;;;;;5075829;28;20427;-67
2024/01/12 03:17:10;;;;;;;6.53;2.17;;;;;;;;;;5075561;28;20396;-67
2024/01/12 03:19:38;;;;;;;5.17;2.07;;;;;;;;;;5058067;28;20424;-67
2024/01/12 03:22:04;;;;;;;4.43;1.90;;;;;;;;;;5076125;28;20474;-66
2024/01/12 03:24:31;;;;;;;4.70;2.27;;;;;;;;;;5075679;28;20417;-67
2024/01/12 03:26:57;;;;;;;3.37;1.63;;;;;;;;;;5076499;28;20553;-67
2024/01/12 03:29:41;;;;;;;4.40;1.87;;;;;;;;;;5075606;28;20443;-67
2024/01/12 03:32:08;;;;;;;8.33;2.07;;;;;;;;;;5057553;28;20741;-67
2024/01/12 03:34:35;;;;;;;5.17;1.90;;;;;;;;;;5057501;28;20440;-67
2024/01/12 03:37:02;;;;;;;4.97;1.73;;;;;;;;;;5041156;28;20452;-67
2024/01/12 03:39:28;;;;;;;6.23;2.20;;;;;;;;;;5075374;28;20459;-67
2024/01/12 03:41:55;;;;;;;4.23;1.97;;;;;;;;;;5057617;28;20409;-67
2024/01/12 03:44:22;;;;;;;4.67;2.03;;;;;;;;;;5090907;28;20919;-67
2024/01/12 03:46:49;;;;;;;3.60;2.00;;;;;;;;;;5057210;28;20456;-67
2024/01/12 03:49:15;;;;;;;7.30;2.17;;;;;;;;;;5075678;28;20519;-67
2024/01/12 03:51:43;;;;;;;5.40;2.30;;;;;;;;;;5075359;28;20422;-67
2024/01/12 03:54:10;;;;;;;6.03;2.37;;;;;;;;;;5057128;28;20425;-67
2024/01/12 03:56:37;;;;;;;7.67;2.87;;;;;;;;;;5057084;28;20490;-67
2024/01/12 03:59:05;;;;;;;11.70;3.73;;;;;;;;;;5074555;28;20463;-67
2024/01/12 04:01:31;;;;;;;12.27;3.67;;;;;;;;;;5057583;28;20415;-70
2024/01/12 04:04:16;;;;;;;9.40;2.97;;;;;;;;;;5045500;28;20924;-67
2024/01/12 04:06:42;;;;;;;6.87;2.60;;;;;;;;;;5056845;28;20980;-67
2024/01/12 04:09:09;;;;;;;9.07;2.77;;;;;;;;;;5056873;28;20468;-67
2024/01/12 04:11:36;;;;;;;5.73;2.70;;;;;;;;;;5074362;28;20432;-67
2024/01/12 04:14:04;;;;;;;5.50;2.50;;;;;;;;;;5056681;28;20424;-67
2024/01/12 04:16:31;;;;;;;11.47;3.60;;;;;;;;;;5073224;28;20546;-70
2024/01/12 04:18:58;;;;;;;10.03;3.00;;;;;;;;;;5094269;28;20431;-70
2024/01/12 04:21:25;;;;;;;9.40;2.87;;;;;;;;;;5094981;28;20427;-72
2024/01/12 04:23:52;;;;;;;5.50;2.60;;;;;;;;;;5076384;28;20435;-72
2024/01/12 04:26:18;;;;;;;7.93;2.90;;;;;;;;;;5060756;28;20474;-73
2024/01/12 04:28:45;;;;;;;7.03;2.80;;;;;;;;;;5094307;28;20520;-72
2024/01/12 04:31:12;;;;;;;7.93;2.77;;;;;;;;;;5094346;28;20426;-72
2024/01/12 04:33:40;;;;;;;9.73;2.63;;;;;;;;;;5059717;28;20443;-71
2024/01/12 04:36:07;;;;;;;5.90;2.20;;;;;;;;;;5056385;28;20907;-68
2024/01/12 04:38:34;;;;;;;5.23;2.10;;;;;;;;;;5074140;28;20519;-71
2024/01/12 04:41:00;;;;;;;6.77;2.50;;;;;;;;;;5037869;28;20431;-71
2024/01/12 04:43:27;;;;;;;6.83;2.20;;;;;;;;;;5056261;28;20428;-71
2024/01/12 04:45:54;;;;;;;5.90;2.67;;;;;;;;;;5056588;28;20412;-72
2024/01/12 04:48:21;;;;;;;6.13;2.30;;;;;;;;;;5053332;28;20950;-71
2024/01/12 04:50:48;;;;;;;5.23;2.20;;;;;;;;;;5069953;28;20416;-71
2024/01/12 04:53:15;;;;;;;8.53;2.43;;;;;;;;;;5055583;28;20467;-70
2024/01/12 04:55:41;;;;;;;7.70;3.10;;;;;;;;;;5036126;28;20478;-71
2024/01/12 04:58:08;;;;;;;6.67;2.70;;;;;;;;;;5054591;28;20440;-71
2024/01/12 05:00:35;;;;;;;7.30;3.30;;;;;;;;;;5036143;28;20449;-73
2024/01/12 05:03:02;;;;;;;7.83;3.57;;;;;;;;;;5034411;28;20448;-72
2024/01/12 05:05:29;;;;;;;6.37;2.93;;;;;;;;;;5039486;28;20421;-73
2024/01/12 05:07:56;;;;;;;4.67;2.40;;;;;;;;;;5039343;28;20529;-73
2024/01/12 05:10:22;;;;;;;4.63;2.10;;;;;;;;;;5056315;28;20436;-72
2024/01/12 05:12:49;;;;;;;4.23;2.10;;;;;;;;;;5073421;28;20515;-70
2024/01/12 05:15:15;;;;;;;4.77;2.03;;;;;;;;;;5072469;28;20428;-72
2024/01/12 05:17:42;;;;;;;5.67;2.00;;;;;;;;;;5039371;28;20424;-72
2024/01/12 05:20:09;;;;;;;6.10;1.70;;;;;;;;;;5039892;28;20904;-70
2024/01/12 05:22:36;;;;;;;6.17;2.00;;;;;;;;;;5073318;28;20435;-69
2024/01/12 05:25:04;;;;;;;5.20;1.97;;;;;;;;;;5055775;28;20501;-69
2024/01/12 05:27:30;;;;;;;5.90;2.00;;;;;;;;;;5039339;28;20923;-69
2024/01/12 05:29:57;;;;;;;6.63;1.93;;;;;;;;;;5039004;28;20822;-69
2024/01/12 05:32:29;;;;;;;5.93;2.03;;;;;;;;;;5040523;28;20396;-70
2024/01/12 05:34:55;;;;;;;6.40;2.60;;;;;;;;;;5039531;28;20810;-69
2024/01/12 05:37:22;;;;;;;6.53;2.13;;;;;;;;;;5060416;28;20527;-70
2024/01/12 05:39:49;;;;;;;6.80;2.43;;;;;;;;;;5043790;28;20444;-69
2024/01/12 05:42:16;;;;;;;6.30;2.33;;;;;;;;;;5060426;28;20741;-67
2024/01/12 05:44:42;;;;;;;8.10;3.07;;;;;;;;;;5077796;28;20412;-67
2024/01/12 05:47:09;;;;;;;6.10;2.37;;;;;;;;;;5077172;28;20456;-67
2024/01/12 05:49:37;;;;;;;4.13;1.47;;;;;;;;;;5060267;28;20622;-67
2024/01/12 05:52:03;;;;;;;7.17;2.40;;;;;;;;;;5059415;28;20432;-67
2024/01/12 05:54:30;;;;;;;7.67;2.60;;;;;;;;;;5077668;28;20431;-67
2024/01/12 05:56:57;;;;;;;4.90;2.10;;;;;;;;;;5059517;28;20962;-68
2024/01/12 05:59:23;;;;;;;8.10;2.20;;;;;;;;;;5077223;28;20448;-67
2024/01/12 06:01:50;;;;;;;5.83;2.13;;;;;;;;;;5077562;28;20473;-67
2024/01/12 06:04:17;;;;;;;8.50;2.67;;;;;;;;;;5059283;28;20436;-67
2024/01/12 06:06:44;;;;;;;4.13;2.20;;;;;;;;;;5075767;28;20733;-67
2024/01/12 06:09:11;;;;;;;6.83;2.33;;;;;;;;;;5076779;28;20459;-69
2024/01/12 06:11:41;;;;;;;7.13;3.10;;;;;;;;;;5042930;28;20482;-69
2024/01/12 06:14:07;;;;;;;7.67;2.67;;;;;;;;;;5059978;28;20477;-70
2024/01/12 06:16:35;;;;;;;9.20;2.87;;;;;;;;;;5059035;28;20490;-69
2024/01/12 06:19:02;;;;;;;9.20;2.60;;;;;;;;;;5077177;28;20431;-69
2024/01/12 06:21:28;;;;;;;7.23;2.47;;;;;;;;;;5077038;28;20431;-70
2024/01/12 06:23:55;;;;;;;6.27;2.53;;;;;;;;;;5077633;28;20424;-70
2024/01/12 06:26:22;;;;;;;5.07;2.07;;;;;;;;;;5042680;28;20420;-69
2024/01/12 06:28:49;;;;;;;3.73;1.67;;;;;;;;;;5041736;28;20475;-69
2024/01/12 06:31:16;;;;;;;5.43;1.73;;;;;;;;;;5076346;28;20923;-69
2024/01/12 06:33:43;;;;;;;7.63;1.73;;;;;;;;;;5042098;28;20440;-69
2024/01/12 06:36:09;;;;;;;4.77;2.10;;;;;;;;;;5058974;28;20805;-70
2024/01/12 06:38:37;;;;;;;6.20;2.00;;;;;;;;;;5058564;28;20428;-70
2024/01/12 06:41:04;;;;;;;7.13;2.00;;;;;;;;;;5075140;28;20438;-69
2024/01/12 06:43:31;;;;;;;4.37;2.03;;;;;;;;;;5058272;28;20436;-72
2024/01/12 06:45:58;;;;;;;3.87;1.67;;;;;;;;;;5041861;28;20922;-69
2024/01/12 06:48:24;;;;;;;6.20;2.10;;;;;;;;;;5057598;28;20464;-71
2024/01/12 06:50:51;;;;;;;6.40;2.10;;;;;;;;;;5042438;28;20803;-68
2024/01/12 06:53:18;;;;;;;6.27;2.30;;;;;;;;;;5076011;28;20440;-68
2024/01/12 06:55:45;;;;;;;5.00;2.23;;;;;;;;;;5075998;28;20412;-68
2024/01/12 06:58:12;;;;;;;5.10;2.30;;;;;;;;;;5058354;28;20438;-68
2024/01/12 07:00:39;;;;;;;5.47;2.03;;;;;;;;;;5058156;28;20436;-68
2024/01/12 07:03:06;;;;;;;6.23;2.10;;;;;;;;;;5051417;28;20985;-68
2024/01/12 07:05:33;;;;;;;4.00;1.77;;;;;;;;;;5065233;28;20428;-73
2024/01/12 07:08:00;;;;;;;5.43;1.93;;;;;;;;;;5048216;28;20776;-73
2024/01/12 07:10:27;;;;;;;5.43;2.10;;;;;;;;;;5065125;28;20426;-72
2024/01/12 07:12:54;;;;;;;3.00;1.70;;;;;;;;;;5065303;28;20524;-71
2024/01/12 07:15:25;;;;;;;6.00;3.10;;;;;;;;;;5065350;28;20489;-72
2024/01/12 07:17:53;;;;;;;7.17;2.80;;;;;;;;;;5065354;28;20424;-73
2024/01/12 07:20:20;;;;;;;10.73;2.17;;;;;;;;;;5048956;28;20826;-72
2024/01/12 07:22:48;;;;;;;8.27;2.63;;;;;;;;;;5064876;28;20431;-73
2024/01/12 07:25:15;;;;;;;5.77;2.27;;;;;;;;;;5048610;28;20444;-71
2024/01/12 07:27:41;;;;;;;6.20;2.27;;;;;;;;;;5064810;28;20817;-72
2024/01/12 07:30:12;;;;;;;7.87;2.40;;;;;;;;;;5064242;28;20449;-74
2024/01/12 07:32:40;;;;;;;6.33;2.50;;;;;;;;;;5064678;28;20435;-71
2024/01/12 07:35:09;;;;;;;7.43;2.87;;;;;;;;;;5031956;28;20939;-71
2024/01/12 07:37:37;;;;;;;6.63;2.03;;;;;;;;;;5065026;28;20424;-70
2024/01/12 07:40:07;;;;;;;7.17;2.60;;;;;;;;;;5066248;28;20416;-73
2024/01/12 07:42:35;;;;;;;6.83;2.37;;;;;;;;;;5064616;28;20432;-71
2024/01/12 07:45:01;;;;;;;7.13;2.30;;;;;;;;;;5064894;28;20467;-70
2024/01/12 07:47:29;;;;;;;5.97;2.53;;;;;;;;;;5046325;28;20954;-71
2024/01/12 07:49:55;;;;;;;9.37;3.43;;;;;;;;;;5047402;28;20435;-71
2024/01/12 07:52:22;;;;;;;6.17;2.93;;;;;;;;;;5031054;28;20440;-73
2024/01/12 07:54:50;;;;;;;9.30;4.20;;;;;;;;;;5030808;28;20466;-70
2024/01/12 07:57:16;;;;;;;8.70;3.40;;;;;;;;;;5031483;28;20947;-70
2024/01/12 07:59:43;;;;;;;7.97;3.70;;;;;;;;;;5063967;28;20474;-72
2024/01/12 08:06:04;;;;;;;5.63;2.30;;;;;;;;;;5066670;28;20786;-73
2024/01/12 08:08:31;;;;;;;5.43;2.53;;;;;;;;;;5048062;28;20468;-73
2024/01/12 08:10:58;;;;;;;4.77;1.87;;;;;;;;;;5047999;28;20498;-73
2024/01/12 08:13:25;;;;;;;6.37;2.87;;;;;;;;;;5031087;28;20435;-73
2024/01/12 08:15:52;;;;;;;9.57;2.90;;;;;;;;;;5031293;28;20427;-73
2024/01/12 08:18:19;;;;;;;4.47;1.73;;;;;;;;;;5031067;28;20435;-73
2024/01/12 08:20:47;;;;;;;7.00;2.93;;;;;;;;;;5047168;28;20436;-73
2024/01/12 08:23:15;;;;;;;7.73;2.97;;;;;;;;;;5047425;28;20450;-74
2024/01/12 08:25:42;;;;;;;5.33;2.57;;;;;;;;;;5048040;28;20528;-71
2024/01/12 08:28:09;;;;;;;2.47;1.07;;;;;;;;;;5046974;28;20463;-73
2024/01/12 08:30:36;;;;;;;4.77;2.03;;;;;;;;;;5030876;28;20437;-74
2024/01/12 08:33:03;;;;;;;5.23;2.17;;;;;;;;;;5030180;28;20525;-72
2024/01/12 08:35:30;;;;;;;5.00;2.07;;;;;;;;;;5046479;28;20832;-71
2024/01/12 08:37:57;;;;;;;3.80;1.67;;;;;;;;;;5064676;28;20462;-74
2024/01/12 08:40:24;;;;;;;3.77;1.13;;;;;;;;;;5046881;28;20417;-77
2024/01/12 08:42:51;;;;;;;3.37;1.60;;;;;;;;;;5033245;28;20433;-67
2024/01/12 08:45:19;;;;;;;3.43;1.30;;;;;;;;;;5074096;28;20473;-74
2024/01/12 08:47:46;;;;;;;4.50;1.33;;;;;;;;;;5040608;28;20934;-75
2024/01/12 08:50:13;;;;;;;6.97;2.30;;;;;;;;;;5039619;28;20923;-72
2024/01/12 08:52:40;;;;;;;4.20;1.77;;;;;;;;;;5056243;28;20420;-70
2024/01/12 08:55:09;;;;;;;4.03;2.10;;;;;;;;;;5074070;28;20436;-72
2024/01/12 08:57:36;;;;;;;3.90;1.40;;;;;;;;;;5056092;28;20424;-70
2024/01/12 09:00:06;;;;;;;1.40;0.90;;;;;;;;;;5039404;28;20608;-70
2024/01/12 09:02:34;;;;;;;4.47;1.63;;;;;;;;;;5056316;28;20439;-69
2024/01/12 09:05:02;;;;;;;7.10;2.30;;;;;;;;;;5059957;28;20539;-70
2024/01/12 09:07:29;;;;;;;3.23;1.70;;;;;;;;;;5076129;28;20817;-68
2024/01/12 09:09:57;;;;;;;6.23;1.50;;;;;;;;;;5075594;28;20415;-68
2024/01/12 09:12:24;;;;;;;4.30;2.17;;;;;;;;;;5060032;28;20910;-68
2024/01/12 09:14:52;;;;;;;6.33;2.13;;;;;;;;;;5075669;28;20450;-68
2024/01/12 09:17:19;;;;;;;7.07;2.20;;;;;;;;;;5059404;28;20444;-68
2024/01/12 09:19:46;;;;;;;7.30;2.07;;;;;;;;;;5075994;28;20567;-68
2024/01/12 09:22:12;;;;;;;5.10;1.80;;;;;;;;;;5094234;28;20442;-68
2024/01/12 09:24:39;;;;;;;7.50;2.00;;;;;;;;;;5059650;28;20446;-68
2024/01/12 09:27:06;;;;;;;5.80;1.43;;;;;;;;;;5093635;28;20427;-68
2024/01/12 09:29:33;;;;;;;5.23;2.13;;;;;;;;;;5059278;28;20475;-68
2024/01/12 09:31:59;;;;;;;4.10;1.70;;;;;;;;;;5059706;28;20431;-69
2024/01/12 09:34:26;;;;;;;2.90;1.47;;;;;;;;;;5075918;28;20423;-68
2024/01/12 09:36:54;;;;;;;2.57;1.57;;;;;;;;;;5093819;28;20867;-68
2024/01/12 09:39:20;;;;;;;5.13;1.70;;;;;;;;;;5093451;28;20930;-70
2024/01/12 09:41:51;;;;;;;3.77;1.53;;;;;;;;;;5075688;28;20467;-67
2024/01/12 09:44:18;;;;;;;8.90;1.80;;;;;;;;;;5059250;28;20427;-69
2024/01/12 09:46:57;;;;;;;5.87;2.00;;;;;;;;;;5076186;28;20834;-69
2024/01/12 09:49:25;;;;;;;5.30;2.00;;;;;;;;;;5044220;28;20462;-69
2024/01/12 09:51:52;;;;;;;4.90;2.27;;;;;;;;;;5093770;28;20415;-69
2024/01/12 09:54:19;;;;;;;3.87;1.60;;;;;;;;;;5059666;28;20423;-69
2024/01/12 09:57:05;;;;;;;4.27;2.30;;;;;;;;;;5093982;28;20391;-69
2024/01/12 09:59:31;;;;;;;4.97;2.27;;;;;;;;;;5042687;28;20957;-69
2024/01/12 10:01:58;;;;;;;6.63;2.67;;;;;;;;;;5075757;28;20428;-69
2024/01/12 10:04:26;;;;;;;7.13;2.30;;;;;;;;;;5058757;28;20455;-69
2024/01/12 10:06:54;;;;;;;4.10;1.70;;;;;;;;;;5093569;28;20473;-69
2024/01/12 10:09:39;;;;;;;7.57;2.97;;;;;;;;;;5078072;28;20817;-68
2024/01/12 10:12:06;;;;;;;4.50;2.20;;;;;;;;;;5058700;28;20423;-69
2024/01/12 10:14:33;;;;;;;4.00;1.77;;;;;;;;;;5075445;28;20521;-69
2024/01/12 10:17:00;;;;;;;7.00;1.63;;;;;;;;;;5075354;28;20902;-69
2024/01/12 10:19:28;;;;;;;6.93;2.37;;;;;;;;;;5058972;28;20437;-69
2024/01/12 10:22:13;;;;;;;3.93;2.33;;;;;;;;;;5079720;28;20497;-69
2024/01/12 10:24:39;;;;;;;2.27;1.20;;;;;;;;;;5079497;28;20464;-69
2024/01/12 10:27:23;;;;;;;2.10;1.00;;;;;;;;;;5081548;28;20871;-69
2024/01/12 10:29:50;;;;;;;4.07;1.87;;;;;;;;;;5079015;28;20494;-69
2024/01/12 10:32:20;;;;;;;3.80;2.10;;;;;;;;;;5079311;28;20451;-69
2024/01/12 10:34:47;;;;;;;3.23;1.80;;;;;;;;;;5096604;28;20431;-69
2024/01/12 10:37:17;;;;;;;3.40;1.57;;;;;;;;;;5079075;28;20476;-69
2024/01/12 10:39:44;;;;;;;5.20;1.90;;;;;;;;;;5063000;28;20435;-69
2024/01/12 10:42:11;;;;;;;7.60;1.40;;;;;;;;;;5062403;28;20421;-69
2024/01/12 10:44:38;;;;;;;5.87;2.17;;;;;;;;;;5096626;28;20426;-69
2024/01/12 10:47:06;;;;;;;5.53;2.00;;;;;;;;;;5079145;28;20440;-69
2024/01/12 10:49:38;;;;;;;3.20;1.40;;;;;;;;;;5078394;28;20447;-69
2024/01/12 10:52:07;;;;;;;4.87;2.03;;;;;;;;;;5078513;28;20402;-69
2024/01/12 10:54:47;;;;;;;5.73;1.93;;;;;;;;;;5096356;28;20532;-69
2024/01/12 10:57:14;;;;;;;3.00;1.93;;;;;;;;;;5078562;28;20423;-69
2024/01/12 10:59:41;;;;;;;4.97;2.27;;;;;;;;;;5096243;28;20447;-69
2024/01/12 11:02:09;;;;;;;4.73;2.30;;;;;;;;;;5078502;28;20444;-69
2024/01/12 11:08:36;;;;;;;4.53;2.50;;;;;;;;;;5076232;28;20478;-69
2024/01/12 11:11:02;;;;;;;5.90;2.80;;;;;;;;;;5058550;28;20435;-69
2024/01/12 11:13:47;;;;;;;5.47;2.47;;;;;;;;;;5044660;28;20421;-69
2024/01/12 11:16:14;;;;;;;5.63;2.00;;;;;;;;;;5041976;28;20423;-69
2024/01/12 11:18:41;;;;;;;6.30;2.60;;;;;;;;;;5058152;28;20431;-69
2024/01/12 11:21:09;;;;;;;8.77;3.10;;;;;;;;;;5058569;28;20928;-69
2024/01/12 11:23:42;;;;;;;5.10;2.67;;;;;;;;;;5041599;28;20953;-69
2024/01/12 11:26:09;;;;;;;7.83;3.30;;;;;;;;;;5057709;28;20428;-69
2024/01/12 11:28:38;;;;;;;6.90;2.60;;;;;;;;;;5075433;28;20950;-69
2024/01/12 11:31:05;;;;;;;7.93;3.10;;;;;;;;;;5057774;28;20459;-69
2024/01/12 11:33:41;;;;;;;5.90;2.33;;;;;;;;;;5057579;28;20523;-69
2024/01/12 11:36:14;;;;;;;5.27;2.37;;;;;;;;;;5075250;28;20423;-68
2024/01/12 11:38:42;;;;;;;7.53;2.77;;;;;;;;;;5057974;28;20450;-69
2024/01/12 11:41:12;;;;;;;8.00;3.57;;;;;;;;;;5058317;28;20412;-69
2024/01/12 11:47:32;;;;;;;6.27;2.87;;;;;;;;;;5075414;28;20716;-69
2024/01/12 11:49:59;;;;;;;7.90;3.70;;;;;;;;;;5074875;28;20570;-69
2024/01/12 11:52:26;;;;;;;5.50;2.80;;;;;;;;;;5075942;28;20430;-69
2024/01/12 11:54:54;;;;;;;8.37;3.77;;;;;;;;;;5057470;28;20555;-69
2024/01/12 11:57:21;;;;;;;9.07;3.10;;;;;;;;;;5040976;28;20412;-69
2024/01/12 11:59:48;;;;;;;7.60;3.43;;;;;;;;;;5041032;28;20458;-69
2024/01/12 12:02:14;;;;;;;7.20;3.37;;;;;;;;;;5040504;28;20432;-69
2024/01/12 12:04:42;;;;;;;9.03;3.40;;;;;;;;;;5075793;28;20439;-69
2024/01/12 12:07:09;;;;;;;10.40;3.37;;;;;;;;;;5075612;28;20759;-69
2024/01/12 12:09:37;;;;;;;10.20;4.40;;;;;;;;;;5040613;28;20472;-69
2024/01/12 12:12:06;;;;;;;11.13;3.83;;;;;;;;;;5057186;28;20434;-69
2024/01/12 12:14:33;;;;;;;7.47;2.93;;;;;;;;;;5040520;28;20438;-69
2024/01/12 12:16:59;;;;;;;6.10;3.60;;;;;;;;;;5074762;28;20475;-69
2024/01/12 12:19:26;;;;;;;6.23;2.27;;;;;;;;;;5056721;28;20435;-69
2024/01/12 12:21:53;;;;;;;5.37;2.80;;;;;;;;;;5056898;28;20526;-69
2024/01/12 12:24:21;;;;;;;4.07;2.73;;;;;;;;;;5056549;28;20463;-70
2024/01/12 12:26:48;;;;;;;8.80;3.13;;;;;;;;;;5040233;28;20437;-70
2024/01/12 12:29:17;;;;;;;8.90;4.20;;;;;;;;;;5074241;28;20477;-70
2024/01/12 12:31:43;;;;;;;10.83;3.47;;;;;;;;;;5085247;28;20435;-70
2024/01/12 12:34:10;;;;;;;9.57;4.67;;;;;;;;;;5056461;28;20428;-70
2024/01/12 12:36:38;;;;;;;10.57;4.40;;;;;;;;;;5074700;28;20416;-70
2024/01/12 12:39:05;;;;;;;8.13;3.67;;;;;;;;;;5023610;28;20432;-70
2024/01/12 12:41:34;;;;;;;7.07;3.17;;;;;;;;;;5074076;28;20421;-70
2024/01/12 12:44:01;;;;;;;7.90;3.30;;;;;;;;;;5056107;28;20431;-70
2024/01/12 12:46:28;;;;;;;6.00;2.93;;;;;;;;;;5055668;28;20908;-70
2024/01/12 12:48:56;;;;;;;7.10;3.40;;;;;;;;;;5040153;28;20514;-70
2024/01/12 12:51:23;;;;;;;6.80;3.50;;;;;;;;;;5057199;28;20448;-70
2024/01/12 12:53:50;;;;;;;5.53;3.53;;;;;;;;;;5074713;28;20519;-71
2024/01/12 12:56:17;;;;;;;7.20;3.77;;;;;;;;;;5074344;28;20420;-70
2024/01/12 12:58:44;;;;;;;5.97;3.67;;;;;;;;;;5039807;28;20428;-70
2024/01/12 13:01:11;;;;;;;8.87;4.00;;;;;;;;;;5056854;28;20400;-70
2024/01/12 13:03:38;;;;;;;3.93;2.53;;;;;;;;;;5073807;28;20464;-71
2024/01/12 13:06:05;;;;;;;12.07;5.27;;;;;;;;;;5074780;28;20412;-70
2024/01/12 13:08:32;;;;;;;9.47;4.83;;;;;;;;;;5040334;28;20433;-72
2024/01/12 13:11:00;;;;;;;5.47;3.23;;;;;;;;;;5074217;28;20487;-73
2024/01/12 13:13:26;;;;;;;9.20;4.53;;;;;;;;;;5039635;28;20429;-72
2024/01/12 13:15:53;;;;;;;8.57;4.47;;;;;;;;;;5074879;28;20422;-73
2024/01/12 13:18:20;;;;;;;6.70;3.93;;;;;;;;;;5055515;28;20478;-71
2024/01/12 13:20:47;;;;;;;9.80;3.97;;;;;;;;;;5056160;28;20428;-71
2024/01/12 13:23:15;;;;;;;4.83;3.33;;;;;;;;;;5074041;28;20425;-71
2024/01/12 13:25:41;;;;;;;6.90;4.07;;;;;;;;;;5074663;28;20887;-79
2024/01/12 13:28:08;;;;;;;7.00;3.53;;;;;;;;;;5075032;28;20747;-80
2024/01/12 13:30:35;;;;;;;7.83;4.10;;;;;;;;;;5056991;28;20521;-78
2024/01/12 13:33:03;;;;;;;10.10;3.80;;;;;;;;;;5057447;28;20757;-78
2024/01/12 13:35:30;;;;;;;9.00;3.43;;;;;;;;;;5041009;28;20903;-79
2024/01/12 13:37:57;;;;;;;6.03;3.47;;;;;;;;;;5056825;28;20428;-79
2024/01/12 13:40:24;;;;;;;8.70;4.10;;;;;;;;;;5040495;28;20419;-82
2024/01/12 13:42:51;;;;;;;6.80;4.13;;;;;;;;;;5041026;28;20760;-78
2024/01/12 13:45:18;;;;;;;7.63;3.97;;;;;;;;;;5074662;28;20413;-81
2024/01/12 13:47:45;;;;;;;7.63;4.10;;;;;;;;;;5041675;28;20433;-78
2024/01/12 13:50:12;;;;;;;9.57;3.73;;;;;;;;;;5077970;28;20491;-79
2024/01/12 13:52:39;;;;;;;7.80;4.40;;;;;;;;;;5044355;28;20431;-76
2024/01/12 13:55:06;;;;;;;8.53;4.43;;;;;;;;;;5076834;28;20481;-71
2024/01/12 13:57:34;;;;;;;8.30;3.70;;;;;;;;;;5061233;28;20822;-71
2024/01/12 14:00:01;;;;;;;8.27;4.50;;;;;;;;;;5079572;28;20836;-71
2024/01/12 14:02:35;;;;;;;5.77;3.07;;;;;;;;;;5097746;28;20407;-71
2024/01/12 14:05:19;;;;;;;8.20;4.07;;;;;;;;;;5065743;28;20399;-71
2024/01/12 14:07:46;;;;;;;7.63;4.23;;;;;;;;;;5079617;28;20973;-71
2024/01/12 14:10:13;;;;;;;8.47;4.37;;;;;;;;;;5063012;28;20466;-71
2024/01/12 14:12:40;;;;;;;5.67;3.60;;;;;;;;;;5097904;28;20423;-71
2024/01/12 14:15:07;;;;;;;7.00;3.60;;;;;;;;;;5097450;28;20459;-76
2024/01/12 14:17:34;;;;;;;7.17;3.57;;;;;;;;;;5079572;28;20522;-74
2024/01/12 14:20:03;;;;;;;8.00;3.80;;;;;;;;;;5079124;28;20422;-73
2024/01/12 14:22:30;;;;;;;5.40;3.53;;;;;;;;;;5097622;28;20829;-71
2024/01/12 14:24:57;;;;;;;9.27;4.10;;;;;;;;;;5097531;28;20411;-70
2024/01/12 14:27:24;;;;;;;6.93;3.90;;;;;;;;;;5079884;28;20431;-71
2024/01/12 14:29:51;;;;;;;8.17;4.20;;;;;;;;;;5097320;28;20554;-71
2024/01/12 14:32:21;;;;;;;8.80;4.53;;;;;;;;;;5080562;28;20427;-72
2024/01/12 14:34:48;;;;;;;8.07;4.63;;;;;;;;;;5078993;28;20427;-72
2024/01/12 14:37:16;;;;;;;10.27;4.30;;;;;;;;;;5079848;28;20431;-72
2024/01/12 14:39:43;;;;;;;7.50;4.20;;;;;;;;;;5079111;28;20439;-72
2024/01/12 14:42:10;;;;;;;9.53;4.43;;;;;;;;;;5079035;28;20447;-72
2024/01/12 14:44:37;;;;;;;6.30;3.90;;;;;;;;;;5078766;28;20477;-72
2024/01/12 14:47:04;;;;;;;9.73;4.30;;;;;;;;;;5097749;28;20493;-72
2024/01/12 14:49:31;;;;;;;9.70;4.53;;;;;;;;;;5062049;28;20450;-72
2024/01/12 14:51:58;;;;;;;6.47;3.50;;;;;;;;;;5078780;28;20429;-72
2024/01/12 14:54:25;;;;;;;9.30;4.20;;;;;;;;;;5078416;28;20427;-72
2024/01/12 14:56:52;;;;;;;9.50;4.77;;;;;;;;;;5096660;28;20443;-72
2024/01/12 14:59:19;;;;;;;9.00;4.33;;;;;;;;;;5078174;28;20463;-71
2024/01/12 15:01:46;;;;;;;8.73;4.40;;;;;;;;;;5078005;28;20446;-72
2024/01/12 15:04:14;;;;;;;7.17;4.20;;;;;;;;;;5078324;28;20435;-72
2024/01/12 15:06:45;;;;;;;8.03;3.30;;;;;;;;;;5096984;28;20425;-72
2024/01/12 15:09:13;;;;;;;5.47;3.20;;;;;;;;;;5061642;28;20416;-78
2024/01/12 15:11:39;;;;;;;7.37;4.27;;;;;;;;;;5078330;28;20431;-75
2024/01/12 15:14:06;;;;;;;8.10;3.73;;;;;;;;;;5061898;28;20480;-78
2024/01/12 15:16:34;;;;;;;10.47;4.67;;;;;;;;;;5061603;28;20769;-76
2024/01/12 15:19:01;;;;;;;9.50;4.43;;;;;;;;;;5061841;28;20469;-74
2024/01/12 15:21:29;;;;;;;6.67;4.27;;;;;;;;;;5061772;28;20447;-74
2024/01/12 15:23:55;;;;;;;8.50;4.87;;;;;;;;;;5061375;28;20423;-80
2024/01/12 15:26:23;;;;;;;9.17;4.27;;;;;;;;;;5061733;28;20448;-72
2024/01/12 15:28:50;;;;;;;12.73;5.30;;;;;;;;;;5078404;28;20407;-73
2024/01/12 15:31:17;;;;;;;8.57;4.13;;;;;;;;;;5044437;28;20488;-72
2024/01/12 15:33:43;;;;;;;11.97;5.10;;;;;;;;;;5078074;28;20757;-72